MOL Partner — 3EBZ5 — position and weather

sailwx.info

Track history (hours):
 
Tides and Currents Weather Stations Pressure Air Temp Water Temp Dewpoint Dewpoint Depression Visibility Wind Speed Wind Dir Waves Ship Positions

MOL Partner

Last reported at 2014-Sep-14 16:29 UTC. Time now 2014-Sep-23 04:27 UTC.
Position N 01°14' E 103°26'.
Warning: this ship's position is 8 days out of date.

Length 293 m; draft 12.3 m.

Type: Ship (hazmat cat D). MMSI: 371303000.

Date/timePositionNaut miles runAvg speedWind from/ knotsBaromVisibWave heightAir tempDewpointWater temp
2014-Sep-14 16:29N 01°14' E 103°26'1819.3
2014-Sep-14 15:33N 01°09' E 103°43'1010.2
2014-Sep-14 14:33N 01°14' E 103°52'2 2.0
2014-Sep-14 13:32N 01°16' E 103°51'0 0.0
2014-Sep-14 12:32N 01°16' E 103°51'0 0.0
2014-Sep-14 11:29N 01°16' E 103°51'0 0.0
2014-Sep-14 10:29N 01°16' E 103°51'0 0.0
2014-Sep-14 09:32N 01°16' E 103°51'0 0.0
2014-Sep-14 08:32N 01°16' E 103°51'0 0.0
2014-Sep-14 07:32N 01°16' E 103°51'0 0.0
2014-Sep-14 06:32N 01°16' E 103°51'0 0.0
2014-Sep-14 05:32N 01°16' E 103°51'0 0.0
2014-Sep-14 04:32N 01°16' E 103°51'0 0.0
2014-Sep-14 03:32N 01°16' E 103°51'0 0.0
2014-Sep-14 02:32N 01°16' E 103°51'0 0.0
2014-Sep-14 01:29N 01°16' E 103°51'0 0.0
2014-Sep-13 21:32N 01°16' E 103°51'0 0.0
2014-Sep-13 20:32N 01°16' E 103°51'0 0.0
2014-Sep-13 19:32N 01°16' E 103°51'0 0.0
2014-Sep-13 18:32N 01°16' E 103°51'2 2.5
2014-Sep-13 17:34N 01°14' E 103°53'0 0.2
2014-Sep-13 16:33N 01°14' E 103°53'4 4.2
2014-Sep-13 15:33N 01°15' E 103°57'1010.4
2014-Sep-13 14:34N 01°17' E 104°07'  
2014-Sep-08 17:12N 22°34' E 114°17'1 1.6
2014-Sep-08 16:33N 22°34' E 114°16'0 0.0
2014-Sep-08 15:33N 22°34' E 114°16'0 0.0
2014-Sep-08 14:33N 22°34' E 114°16'0 0.0
2014-Sep-08 13:15N 22°34' E 114°16'0 0.0
2014-Sep-08 12:33N 22°34' E 114°16'0 0.0
2014-Sep-08 11:27N 22°34' E 114°16'0 0.0
2014-Sep-08 10:21N 22°34' E 114°16'0 0.0
2014-Sep-08 09:33N 22°34' E 114°16'0 0.0
2014-Sep-08 08:33N 22°34' E 114°16'0 0.0
2014-Sep-08 07:33N 22°34' E 114°16'0 0.0
2014-Sep-08 06:33N 22°34' E 114°16'0 0.0
2014-Sep-08 05:33N 22°34' E 114°16'0 0.0
2014-Sep-08 04:33N 22°34' E 114°16'0 0.0
2014-Sep-08 03:33N 22°34' E 114°16'0 0.0
2014-Sep-08 02:33N 22°34' E 114°16'0 0.0
2014-Sep-08 01:33N 22°34' E 114°16'0 0.0
2014-Sep-08 00:33N 22°34' E 114°16'0 0.0
2014-Sep-07 23:33N 22°34' E 114°16'0 0.0
2014-Sep-07 22:27N 22°34' E 114°16'0 0.0
2014-Sep-07 21:33N 22°34' E 114°16'0 0.0
2014-Sep-07 20:33N 22°34' E 114°16'0 0.0
2014-Sep-07 19:33N 22°34' E 114°16'0 0.0
2014-Sep-07 18:33N 22°34' E 114°16'0 0.0
2014-Sep-07 17:33N 22°34' E 114°16'0 0.0
2014-Sep-07 16:27N 22°34' E 114°16'0 0.0
2014-Sep-07 15:33N 22°34' E 114°16'0 0.0
2014-Sep-07 14:33N 22°34' E 114°16'0 0.0
2014-Sep-07 13:21N 22°34' E 114°16'1 0.8
2014-Sep-07 12:33N 22°34' E 114°16'17 1.8
2014-Sep-07 03:33N 22°19' E 114°07'1 0.0
2014-Sep-05 23:26N 22°20' E 114°08'9 8.4
2014-Sep-05 22:20N 22°11' E 114°12'  
Track history (hours):
 
Tides and Currents Weather Stations Pressure Air Temp Water Temp Dewpoint Dewpoint Depression Visibility Wind Speed Wind Dir Waves Ship Positions

MOL Partner

Last reported at 2014-Sep-14 16:29 UTC. Time now 2014-Sep-23 04:27 UTC.
Position N 01°14' E 103°26'.
Warning: this ship's position is 8 days out of date.

Length 293 m; draft 12.3 m.

Type: Ship (hazmat cat D). MMSI: 371303000.

Date/timePositionNaut miles runAvg speedWind from/ knotsBaromVisibWave heightAir tempDewpointWater temp
2014-Sep-14 16:29N 01°14' E 103°26'1819.3
2014-Sep-14 15:33N 01°09' E 103°43'1010.2
2014-Sep-14 14:33N 01°14' E 103°52'2 2.0
2014-Sep-14 13:32N 01°16' E 103°51'0 0.0
2014-Sep-14 12:32N 01°16' E 103°51'0 0.0
2014-Sep-14 11:29N 01°16' E 103°51'0 0.0
2014-Sep-14 10:29N 01°16' E 103°51'0 0.0
2014-Sep-14 09:32N 01°16' E 103°51'0 0.0
2014-Sep-14 08:32N 01°16' E 103°51'0 0.0
2014-Sep-14 07:32N 01°16' E 103°51'0 0.0
2014-Sep-14 06:32N 01°16' E 103°51'0 0.0
2014-Sep-14 05:32N 01°16' E 103°51'0 0.0
2014-Sep-14 04:32N 01°16' E 103°51'0 0.0
2014-Sep-14 03:32N 01°16' E 103°51'0 0.0
2014-Sep-14 02:32N 01°16' E 103°51'0 0.0
2014-Sep-14 01:29N 01°16' E 103°51'0 0.0
2014-Sep-13 21:32N 01°16' E 103°51'0 0.0
2014-Sep-13 20:32N 01°16' E 103°51'0 0.0
2014-Sep-13 19:32N 01°16' E 103°51'0 0.0
2014-Sep-13 18:32N 01°16' E 103°51'2 2.5
2014-Sep-13 17:34N 01°14' E 103°53'0 0.2
2014-Sep-13 16:33N 01°14' E 103°53'4 4.2
2014-Sep-13 15:33N 01°15' E 103°57'1010.4
2014-Sep-13 14:34N 01°17' E 104°07'  
2014-Sep-08 17:12N 22°34' E 114°17'1 1.6
2014-Sep-08 16:33N 22°34' E 114°16'0 0.0
2014-Sep-08 15:33N 22°34' E 114°16'0 0.0
2014-Sep-08 14:33N 22°34' E 114°16'0 0.0
2014-Sep-08 13:15N 22°34' E 114°16'0 0.0
2014-Sep-08 12:33N 22°34' E 114°16'0 0.0
2014-Sep-08 11:27N 22°34' E 114°16'0 0.0
2014-Sep-08 10:21N 22°34' E 114°16'0 0.0
2014-Sep-08 09:33N 22°34' E 114°16'0 0.0
2014-Sep-08 08:33N 22°34' E 114°16'0 0.0
2014-Sep-08 07:33N 22°34' E 114°16'0 0.0
2014-Sep-08 06:33N 22°34' E 114°16'0 0.0
2014-Sep-08 05:33N 22°34' E 114°16'0 0.0
2014-Sep-08 04:33N 22°34' E 114°16'0 0.0
2014-Sep-08 03:33N 22°34' E 114°16'0 0.0
2014-Sep-08 02:33N 22°34' E 114°16'0 0.0
2014-Sep-08 01:33N 22°34' E 114°16'0 0.0
2014-Sep-08 00:33N 22°34' E 114°16'0 0.0
2014-Sep-07 23:33N 22°34' E 114°16'0 0.0
2014-Sep-07 22:27N 22°34' E 114°16'0 0.0
2014-Sep-07 21:33N 22°34' E 114°16'0 0.0
2014-Sep-07 20:33N 22°34' E 114°16'0 0.0
2014-Sep-07 19:33N 22°34' E 114°16'0 0.0
2014-Sep-07 18:33N 22°34' E 114°16'0 0.0
2014-Sep-07 17:33N 22°34' E 114°16'0 0.0
2014-Sep-07 16:27N 22°34' E 114°16'0 0.0
2014-Sep-07 15:33N 22°34' E 114°16'0 0.0
2014-Sep-07 14:33N 22°34' E 114°16'0 0.0
2014-Sep-07 13:21N 22°34' E 114°16'1 0.8
2014-Sep-07 12:33N 22°34' E 114°16'17 1.8
2014-Sep-07 03:33N 22°19' E 114°07'1 0.0
2014-Sep-05 23:26N 22°20' E 114°08'9 8.4
2014-Sep-05 22:20N 22°11' E 114°12'  

Dump ship's entire track history